Time;durP1;ratioP1;P1;durP2;ratioP2;P2;SDS_P1;SDS_P2;PMS_P1;PMS_P2;Temp;Humidity;BMP_temperature;BMP_pressure;BME280_temperature;BME280_humidity;BME280_pressure;Samples;Min_cycle;Max_cycle;Signal;HPM_P1;HPM_P2
2023/05/14 00:00:19;;;;;;;;;;;;;;;8.33;65.58;99487.70;135861;1276;22483;-67
2023/05/14 00:03:50;;;;;;;;;;;;;;;8.29;65.95;99481.58;135786;1276;22499;-67
2023/05/14 00:06:59;;;;;;;;;;;;;;;8.34;65.78;99480.85;135907;1258;22508;-67
2023/05/14 00:10:03;;;;;;;;;;;;;;;8.27;65.96;99479.77;135893;1276;22499;-67
2023/05/14 00:13:05;;;;;;;;;;;;;;;8.22;66.28;99480.82;135878;1276;22502;-65
2023/05/14 00:16:08;;;;;;;;;;;;;;;8.19;66.49;99479.73;131815;1276;5388299;-66
2023/05/14 00:19:10;;;;;;;;;;;;;;;8.18;66.40;99479.06;135751;1276;22494;-66
2023/05/14 00:22:13;;;;;;;;;;;;;;;8.12;66.28;99475.46;135927;1254;22550;-67
2023/05/14 00:25:36;;;;;;;;;;;;;;;7.94;66.86;99472.53;135894;1261;22515;-67
2023/05/14 00:28:42;;;;;;;;;;;;;;;7.78;67.28;99472.48;135872;1276;22505;-66
2023/05/14 00:31:48;;;;;;;;;;;;;;;7.74;67.65;99474.19;135886;1276;22533;-66
2023/05/14 00:34:51;;;;;;;;;;;;;;;7.74;67.59;99472.79;135792;1276;25211;-66
2023/05/14 00:37:53;;;;;;;;;;;;;;;7.78;67.25;99474.37;135927;1276;22503;-67
2023/05/14 00:41:00;;;;;;;;;;;;;;;7.80;67.01;99477.44;135914;1276;22528;-68
2023/05/14 00:44:03;;;;;;;;;;;;;;;7.78;67.15;99478.54;135909;1276;22507;-67
2023/05/14 00:47:10;;;;;;;;;;;;;;;7.78;67.42;99474.73;135829;1276;22504;-65
2023/05/14 00:50:13;;;;;;;;;;;;;;;7.61;68.21;99476.75;135894;1276;22511;-66
2023/05/14 00:53:15;;;;;;;;;;;;;;;7.53;68.19;99473.94;135913;1276;22501;-69
2023/05/14 00:56:18;;;;;;;;;;;;;;;7.48;68.37;99469.96;135913;1276;22527;-66
2023/05/14 00:59:21;;;;;;;;;;;;;;;7.43;68.21;99473.80;135914;1276;24240;-67
2023/05/14 01:02:25;;;;;;;;;;;;;;;7.47;67.84;99475.05;135807;1276;22594;-66
2023/05/14 01:05:28;;;;;;;;;;;;;;;7.29;68.52;99480.73;135920;1276;22517;-65
2023/05/14 01:08:31;;;;;;;;;;;;;;;7.16;68.94;99483.67;135849;1276;22503;-67
2023/05/14 01:11:33;;;;;;;;;;;;;;;7.19;68.87;99487.91;135748;1276;22525;-68
2023/05/14 01:14:36;;;;;;;;;;;;;;;7.16;68.70;99488.71;135950;1259;22507;-68
2023/05/14 01:17:40;;;;;;;;;;;;;;;7.17;68.98;99492.00;135892;1276;22502;-67
2023/05/14 01:20:43;;;;;;;;;;;;;;;7.16;69.34;99487.50;135907;1276;22524;-66
2023/05/14 01:23:46;;;;;;;;;;;;;;;7.09;69.80;99485.82;135877;1276;22513;-68
2023/05/14 01:26:50;;;;;;;;;;;;;;;7.03;70.04;99485.00;135885;1276;25499;-65
2023/05/14 01:29:52;;;;;;;;;;;;;;;7.13;69.64;99481.52;135663;1276;22500;-70
2023/05/14 01:33:02;;;;;;;;;;;;;;;7.08;70.18;99478.74;135940;1276;24365;-67
2023/05/14 01:36:05;;;;;;;;;;;;;;;7.03;70.95;99476.12;135949;1276;22612;-65
2023/05/14 01:39:11;;;;;;;;;;;;;;;7.08;70.00;99474.74;135898;1276;24417;-66
2023/05/14 01:42:15;;;;;;;;;;;;;;;7.09;69.83;99470.16;135914;1276;22533;-67
2023/05/14 01:45:17;;;;;;;;;;;;;;;7.10;69.86;99468.05;135906;1276;22529;-66
2023/05/14 01:48:20;;;;;;;;;;;;;;;7.10;70.40;99466.83;135958;1276;22586;-66
2023/05/14 01:51:23;;;;;;;;;;;;;;;7.09;70.83;99460.42;135891;1276;24409;-66
2023/05/14 01:54:27;;;;;;;;;;;;;;;7.06;70.67;99461.42;135889;1276;22627;-67
2023/05/14 01:57:29;;;;;;;;;;;;;;;7.00;70.59;99458.52;135653;1276;22495;-67
2023/05/14 02:00:33;;;;;;;;;;;;;;;6.94;71.10;99459.40;135885;1276;26596;-67
2023/05/14 02:03:37;;;;;;;;;;;;;;;6.88;70.80;99462.77;135905;1276;22500;-66
2023/05/14 02:06:40;;;;;;;;;;;;;;;6.86;70.62;99460.38;135899;1276;22513;-67
2023/05/14 02:09:43;;;;;;;;;;;;;;;6.74;71.52;99457.16;135790;1276;22513;-67
2023/05/14 02:12:47;;;;;;;;;;;;;;;6.70;71.97;99456.95;135869;1276;22501;-66
2023/05/14 02:15:50;;;;;;;;;;;;;;;6.69;71.51;99456.83;135850;1276;22511;-66
2023/05/14 02:18:53;;;;;;;;;;;;;;;6.66;71.75;99458.13;135936;1276;22616;-68
2023/05/14 02:21:56;;;;;;;;;;;;;;;6.64;72.80;99458.05;135885;1276;22507;-67
2023/05/14 02:25:00;;;;;;;;;;;;;;;6.62;72.04;99455.16;135840;1276;22533;-67
2023/05/14 02:28:04;;;;;;;;;;;;;;;6.58;71.99;99452.84;135929;1276;22509;-67
2023/05/14 02:31:06;;;;;;;;;;;;;;;6.57;73.19;99444.89;135931;1276;22501;-67
2023/05/14 02:34:10;;;;;;;;;;;;;;;6.64;72.75;99438.73;135931;1276;22520;-67
2023/05/14 02:37:13;;;;;;;;;;;;;;;6.64;72.35;99435.95;135759;1276;22513;-68
2023/05/14 02:40:17;;;;;;;;;;;;;;;6.64;72.20;99439.25;135930;1276;25207;-66
2023/05/14 02:43:20;;;;;;;;;;;;;;;6.66;71.63;99438.33;135851;1276;22505;-69
2023/05/14 02:46:23;;;;;;;;;;;;;;;6.68;71.04;99439.13;135893;1276;24382;-69
2023/05/14 02:49:26;;;;;;;;;;;;;;;6.72;71.30;99445.75;135893;1276;22515;-67
2023/05/14 02:52:29;;;;;;;;;;;;;;;6.70;71.21;99452.25;135774;1276;22521;-67
2023/05/14 02:55:32;;;;;;;;;;;;;;;6.71;70.91;99457.08;135833;1276;22503;-69
2023/05/14 02:58:36;;;;;;;;;;;;;;;6.69;71.59;99449.34;135927;1276;22514;-67
2023/05/14 03:01:39;;;;;;;;;;;;;;;6.79;71.44;99444.83;135890;1276;22509;-65
2023/05/14 03:04:42;;;;;;;;;;;;;;;6.73;71.64;99444.85;135929;1276;22484;-65
2023/05/14 03:07:45;;;;;;;;;;;;;;;6.68;71.73;99447.61;135792;1276;22495;-65
2023/05/14 03:10:48;;;;;;;;;;;;;;;6.61;72.18;99449.80;135928;1276;22971;-67
2023/05/14 03:13:51;;;;;;;;;;;;;;;6.65;72.93;99444.97;135911;1276;25316;-65
2023/05/14 03:16:55;;;;;;;;;;;;;;;6.66;73.56;99448.56;135831;1276;22501;-66
2023/05/14 03:19:59;;;;;;;;;;;;;;;6.77;74.20;99443.69;135904;1276;22635;-66
2023/05/14 03:23:02;;;;;;;;;;;;;;;6.81;73.67;99440.42;135949;1275;22507;-68
2023/05/14 03:26:07;;;;;;;;;;;;;;;6.83;73.22;99440.68;135910;1276;22504;-65
2023/05/14 03:29:10;;;;;;;;;;;;;;;6.80;72.58;99445.66;135887;1257;23829;-65
2023/05/14 03:32:13;;;;;;;;;;;;;;;6.85;72.49;99440.95;135962;1259;22503;-70
2023/05/14 03:35:16;;;;;;;;;;;;;;;6.99;72.35;99436.30;135938;1258;22504;-67
2023/05/14 03:38:23;;;;;;;;;;;;;;;7.11;72.42;99438.09;135989;1275;24213;-67
2023/05/14 03:41:30;;;;;;;;;;;;;;;7.20;72.52;99440.73;135924;1275;22502;-66
2023/05/14 03:44:34;;;;;;;;;;;;;;;7.27;72.32;99442.37;135927;1275;22506;-67
2023/05/14 03:47:37;;;;;;;;;;;;;;;7.42;72.16;99435.73;135957;1275;22514;-65
2023/05/14 03:50:42;;;;;;;;;;;;;;;7.60;73.05;99431.91;135926;1275;22539;-68
2023/05/14 03:53:46;;;;;;;;;;;;;;;7.78;72.93;99430.84;135971;1275;22533;-67
2023/05/14 03:56:53;;;;;;;;;;;;;;;8.00;72.74;99426.64;135893;1264;22735;-65
2023/05/14 03:59:58;;;;;;;;;;;;;;;8.20;72.02;99424.45;135900;1276;22518;-65
2023/05/14 04:03:02;;;;;;;;;;;;;;;8.44;71.92;99426.09;135956;1276;22593;-66
2023/05/14 04:06:13;;;;;;;;;;;;;;;8.73;71.29;99426.26;135922;1272;22493;-66
2023/05/14 04:09:16;;;;;;;;;;;;;;;8.97;71.65;99423.98;135938;1275;22507;-66
2023/05/14 04:12:20;;;;;;;;;;;;;;;9.31;72.42;99420.69;135976;1275;22497;-65
2023/05/14 04:15:26;;;;;;;;;;;;;;;9.76;71.95;99414.04;135899;1275;22650;-66
2023/05/14 04:18:29;;;;;;;;;;;;;;;10.20;70.76;99414.34;135961;1275;22500;-65
2023/05/14 04:21:32;;;;;;;;;;;;;;;10.44;70.09;99417.69;135912;1275;22542;-66
2023/05/14 04:24:35;;;;;;;;;;;;;;;10.70;70.14;99415.30;135916;1275;22528;-66
2023/05/14 04:27:38;;;;;;;;;;;;;;;10.60;71.47;99416.90;135943;1267;22562;-65
2023/05/14 04:30:41;;;;;;;;;;;;;;;10.88;71.20;99414.91;135972;1275;22494;-66
2023/05/14 04:33:44;;;;;;;;;;;;;;;11.16;71.70;99413.59;135941;1275;22504;-66
2023/05/14 04:36:48;;;;;;;;;;;;;;;11.44;71.61;99399.63;135905;1256;22505;-66
2023/05/14 04:39:51;;;;;;;;;;;;;;;11.77;70.85;99399.60;135977;1259;22542;-67
2023/05/14 04:42:54;;;;;;;;;;;;;;;12.02;70.98;99389.23;135973;1270;22592;-66
2023/05/14 04:45:57;;;;;;;;;;;;;;;12.39;69.95;99385.88;135959;1275;22508;-66
2023/05/14 04:49:01;;;;;;;;;;;;;;;12.74;69.43;99383.23;135947;1259;22524;-66
2023/05/14 04:52:04;;;;;;;;;;;;;;;13.17;67.64;99379.16;135816;1275;22832;-65
2023/05/14 04:55:07;;;;;;;;;;;;;;;13.50;67.00;99375.17;137180;1275;23061;-65
2023/05/14 04:58:10;;;;;;;;;;;;;;;13.78;66.12;99373.53;136492;1275;23006;-65
2023/05/14 05:01:14;;;;;;;;;;;;;;;13.95;65.38;99372.98;135757;1275;22488;-65
2023/05/14 05:04:18;;;;;;;;;;;;;;;14.18;64.87;99373.21;135764;1275;22518;-65
2023/05/14 05:07:21;;;;;;;;;;;;;;;14.41;64.18;99366.20;135890;1275;22497;-68
2023/05/14 05:10:24;;;;;;;;;;;;;;;14.69;63.82;99361.36;135967;1275;24261;-67
2023/05/14 05:13:28;;;;;;;;;;;;;;;14.90;63.14;99362.17;135954;1256;22497;-66
2023/05/14 05:16:31;;;;;;;;;;;;;;;15.18;62.60;99358.30;135912;1275;22503;-65
2023/05/14 05:19:35;;;;;;;;;;;;;;;15.41;62.06;99361.15;135960;1258;22517;-66
2023/05/14 05:22:37;;;;;;;;;;;;;;;15.77;61.36;99367.77;135941;1275;22496;-66
2023/05/14 05:25:41;;;;;;;;;;;;;;;16.06;61.28;99369.29;135873;1275;22500;-67
2023/05/14 05:28:45;;;;;;;;;;;;;;;16.43;60.72;99367.04;135981;1275;22509;-66
2023/05/14 05:31:49;;;;;;;;;;;;;;;16.69;60.20;99368.62;135930;1275;22622;-66
2023/05/14 05:34:52;;;;;;;;;;;;;;;16.90;60.00;99375.27;135950;1275;22502;-64
2023/05/14 05:37:56;;;;;;;;;;;;;;;17.16;58.85;99365.33;135961;1275;22957;-65
2023/05/14 05:41:00;;;;;;;;;;;;;;;17.37;58.46;99366.84;135962;1275;22505;-66
2023/05/14 05:44:05;;;;;;;;;;;;;;;17.70;57.97;99360.73;135941;1275;24354;-70
2023/05/14 05:47:09;;;;;;;;;;;;;;;17.86;57.19;99359.67;135962;1275;22523;-66
2023/05/14 05:50:13;;;;;;;;;;;;;;;17.88;56.39;99358.25;135954;1275;22508;-69
2023/05/14 05:53:17;;;;;;;;;;;;;;;17.94;56.76;99351.96;135932;1275;22521;-67
2023/05/14 05:56:23;;;;;;;;;;;;;;;18.27;56.05;99355.20;135985;1275;22562;-67
2023/05/14 05:59:27;;;;;;;;;;;;;;;18.57;54.40;99341.48;135965;1275;24214;-68
2023/05/14 06:02:31;;;;;;;;;;;;;;;18.76;52.90;99340.77;135948;1275;25300;-68
2023/05/14 06:05:34;;;;;;;;;;;;;;;19.00;52.44;99341.73;135963;1275;22999;-70
2023/05/14 06:08:38;;;;;;;;;;;;;;;19.19;51.93;99344.34;135919;1275;22521;-65
2023/05/14 06:11:42;;;;;;;;;;;;;;;19.46;51.62;99340.30;135945;1275;24284;-67
2023/05/14 06:14:45;;;;;;;;;;;;;;;19.65;50.79;99343.94;135957;1275;22497;-66
2023/05/14 06:17:49;;;;;;;;;;;;;;;19.82;50.64;99346.64;135946;1275;22504;-66
2023/05/14 06:20:52;;;;;;;;;;;;;;;20.02;49.69;99347.88;135937;1275;22497;-69
2023/05/14 06:23:56;;;;;;;;;;;;;;;20.04;49.19;99344.45;135956;1275;25387;-65
2023/05/14 06:27:00;;;;;;;;;;;;;;;20.07;48.41;99341.16;135947;1275;22517;-68
2023/05/14 06:30:03;;;;;;;;;;;;;;;20.23;48.39;99329.74;135973;1275;22502;-70
2023/05/14 06:33:07;;;;;;;;;;;;;;;20.41;48.45;99332.73;135946;1275;22510;-66
2023/05/14 06:36:11;;;;;;;;;;;;;;;20.66;47.59;99334.70;135968;1275;22510;-69
2023/05/14 06:39:14;;;;;;;;;;;;;;;20.80;47.45;99335.68;135961;1275;22547;-68
2023/05/14 06:42:18;;;;;;;;;;;;;;;21.05;47.13;99332.90;135917;1275;22515;-66
2023/05/14 06:45:21;;;;;;;;;;;;;;;21.17;46.79;99331.23;135960;1275;25234;-65
2023/05/14 06:48:28;;;;;;;;;;;;;;;21.24;46.51;99324.30;135951;1275;26688;-66
2023/05/14 06:51:31;;;;;;;;;;;;;;;21.33;45.68;99320.83;135974;1275;22664;-66
2023/05/14 06:54:34;;;;;;;;;;;;;;;21.31;46.06;99317.61;135933;1275;22506;-69
2023/05/14 06:57:38;;;;;;;;;;;;;;;21.43;45.78;99315.50;135876;1275;22969;-66
2023/05/14 07:00:42;;;;;;;;;;;;;;;21.52;44.78;99316.84;135938;1271;22500;-68
2023/05/14 07:03:45;;;;;;;;;;;;;;;21.52;44.75;99312.66;135948;1275;22520;-67
2023/05/14 07:06:49;;;;;;;;;;;;;;;21.73;44.05;99311.03;135967;1275;22494;-68
2023/05/14 07:09:53;;;;;;;;;;;;;;;21.90;43.88;99306.98;135963;1275;22548;-68
2023/05/14 07:12:58;;;;;;;;;;;;;;;22.02;43.56;99305.66;135974;1275;22492;-66
2023/05/14 07:16:01;;;;;;;;;;;;;;;22.24;43.66;99307.89;135982;1275;22520;-68
2023/05/14 07:19:05;;;;;;;;;;;;;;;22.43;42.65;99315.19;135941;1275;22493;-68
2023/05/14 07:22:09;;;;;;;;;;;;;;;22.49;42.40;99312.96;135954;1275;22506;-68
2023/05/14 07:25:12;;;;;;;;;;;;;;;22.81;43.08;99311.97;135984;1275;22546;-67
2023/05/14 07:28:15;;;;;;;;;;;;;;;23.07;42.59;99305.17;135955;1275;22508;-69
2023/05/14 07:31:19;;;;;;;;;;;;;;;22.84;42.27;99299.88;135942;1275;22498;-66
2023/05/14 07:34:23;;;;;;;;;;;;;;;22.81;42.28;99302.74;135913;1275;22506;-68
2023/05/14 07:37:27;;;;;;;;;;;;;;;22.89;41.25;99297.63;135984;1275;22520;-69
2023/05/14 07:40:30;;;;;;;;;;;;;;;22.93;41.95;99293.10;135943;1275;22510;-69
2023/05/14 07:43:34;;;;;;;;;;;;;;;23.28;41.96;99285.98;135949;1275;22509;-69
2023/05/14 07:46:37;;;;;;;;;;;;;;;23.54;41.58;99282.68;135975;1275;22529;-70
2023/05/14 07:49:41;;;;;;;;;;;;;;;23.65;40.51;99278.87;135957;1275;22509;-67
2023/05/14 07:52:45;;;;;;;;;;;;;;;23.65;40.86;99277.98;135956;1275;22624;-67
2023/05/14 07:55:48;;;;;;;;;;;;;;;23.40;40.47;99284.27;135999;1275;22544;-67
2023/05/14 07:58:53;;;;;;;;;;;;;;;23.49;40.24;99284.52;135973;1275;22569;-68
2023/05/14 08:01:56;;;;;;;;;;;;;;;23.61;40.41;99286.76;135940;1275;22573;-68
2023/05/14 08:05:00;;;;;;;;;;;;;;;23.99;40.00;99291.45;135950;1275;22663;-69
2023/05/14 08:08:03;;;;;;;;;;;;;;;24.17;39.01;99294.50;135947;1275;22479;-68
2023/05/14 08:11:07;;;;;;;;;;;;;;;24.00;38.41;99296.55;135930;1275;22514;-66
2023/05/14 08:14:11;;;;;;;;;;;;;;;23.98;39.32;99288.70;135958;1275;22589;-67
2023/05/14 08:17:15;;;;;;;;;;;;;;;24.08;38.07;99292.60;135966;1275;25377;-68
2023/05/14 08:20:19;;;;;;;;;;;;;;;24.15;37.97;99285.19;135979;1275;22506;-68
2023/05/14 08:23:22;;;;;;;;;;;;;;;24.20;38.39;99288.36;135963;1275;22528;-67
2023/05/14 08:26:24;;;;;;;;;;;;;;;24.35;37.40;99286.63;135976;1275;22504;-69
2023/05/14 08:29:27;;;;;;;;;;;;;;;24.29;36.90;99292.40;135981;1275;25476;-68
2023/05/14 08:32:30;;;;;;;;;;;;;;;24.37;37.04;99282.40;135987;1275;22745;-69
2023/05/14 08:35:33;;;;;;;;;;;;;;;24.62;38.04;99279.16;135928;1275;22613;-70
2023/05/14 08:38:37;;;;;;;;;;;;;;;24.81;36.78;99284.49;135931;1275;22504;-68
2023/05/14 08:41:40;;;;;;;;;;;;;;;24.77;36.02;99281.59;136017;1275;24229;-66
2023/05/14 08:44:44;;;;;;;;;;;;;;;24.72;36.30;99275.54;135948;1275;22569;-68
2023/05/14 08:47:47;;;;;;;;;;;;;;;24.68;35.83;99277.50;135975;1275;22529;-68
2023/05/14 08:50:50;;;;;;;;;;;;;;;24.65;35.51;99267.70;135999;1275;22512;-68
2023/05/14 08:54:00;;;;;;;;;;;;;;;24.76;36.30;99266.67;135997;1275;22500;-67
2023/05/14 08:57:03;;;;;;;;;;;;;;;24.81;35.95;99264.10;136014;1275;22498;-69
2023/05/14 09:00:10;;;;;;;;;;;;;;;24.91;35.47;99257.45;135910;1275;23912;-66
2023/05/14 09:03:17;;;;;;;;;;;;;;;24.92;35.78;99261.43;135976;1275;22514;-66
2023/05/14 09:06:21;;;;;;;;;;;;;;;24.88;34.98;99252.64;135998;1275;22513;-67
2023/05/14 09:09:24;;;;;;;;;;;;;;;24.90;35.45;99249.34;135986;1275;22518;-66
2023/05/14 09:12:27;;;;;;;;;;;;;;;25.09;35.25;99246.20;135974;1275;22504;-67
2023/05/14 09:15:31;;;;;;;;;;;;;;;25.35;36.26;99248.22;135978;1275;22507;-67
2023/05/14 09:18:35;;;;;;;;;;;;;;;25.89;35.87;99242.88;136021;1275;22805;-67
2023/05/14 09:21:37;;;;;;;;;;;;;;;26.27;34.68;99243.54;135968;1275;22517;-68
2023/05/14 09:24:41;;;;;;;;;;;;;;;26.35;33.75;99232.92;135991;1275;22512;-68
2023/05/14 09:27:45;;;;;;;;;;;;;;;26.03;33.74;99240.52;135949;1275;24666;-67
2023/05/14 09:30:48;;;;;;;;;;;;;;;25.98;33.51;99243.39;135983;1275;22756;-67
2023/05/14 09:33:52;;;;;;;;;;;;;;;25.95;33.46;99241.42;135992;1275;22490;-65
2023/05/14 09:36:55;;;;;;;;;;;;;;;25.98;33.21;99235.18;135965;1275;25356;-67
2023/05/14 09:39:58;;;;;;;;;;;;;;;26.06;33.25;99224.44;135988;1275;22552;-69
2023/05/14 09:43:05;;;;;;;;;;;;;;;26.19;33.17;99220.05;135987;1257;22497;-69
2023/05/14 09:46:07;;;;;;;;;;;;;;;26.35;33.79;99218.58;135989;1275;24239;-70
2023/05/14 09:49:11;;;;;;;;;;;;;;;26.50;33.19;99213.94;136023;1275;23901;-68
2023/05/14 09:52:14;;;;;;;;;;;;;;;26.61;33.71;99213.35;136030;1275;22492;-67
2023/05/14 09:55:17;;;;;;;;;;;;;;;26.75;32.93;99208.52;135982;1275;22617;-67
2023/05/14 09:58:20;;;;;;;;;;;;;;;26.63;32.47;99206.41;135996;1256;24335;-67
2023/05/14 10:01:23;;;;;;;;;;;;;;;26.80;33.14;99200.20;136032;1275;22507;-67
2023/05/14 10:04:27;;;;;;;;;;;;;;;27.02;33.04;99202.26;135911;1275;22508;-71
2023/05/14 10:07:30;;;;;;;;;;;;;;;27.20;32.81;99200.64;135908;1275;22610;-66
2023/05/14 10:10:33;;;;;;;;;;;;;;;27.29;32.24;99196.71;136038;1275;22562;-67
2023/05/14 10:13:36;;;;;;;;;;;;;;;27.47;32.80;99192.48;135880;1275;22542;-65
2023/05/14 10:16:39;;;;;;;;;;;;;;;27.89;32.64;99186.80;136028;1275;22605;-68
2023/05/14 10:19:50;;;;;;;;;;;;;;;28.09;31.54;99182.49;135867;1275;22509;-66
2023/05/14 10:22:53;;;;;;;;;;;;;;;28.02;31.93;99173.09;136013;1275;22504;-66
2023/05/14 10:25:57;;;;;;;;;;;;;;;27.89;31.56;99167.06;136015;1275;22494;-66
2023/05/14 10:29:00;;;;;;;;;;;;;;;27.82;31.65;99163.61;136002;1275;22514;-67
2023/05/14 10:32:03;;;;;;;;;;;;;;;27.83;30.85;99156.44;135921;1275;22508;-65
2023/05/14 10:35:06;;;;;;;;;;;;;;;27.88;31.37;99160.53;135911;1275;22687;-66
2023/05/14 10:38:08;;;;;;;;;;;;;;;27.89;31.42;99153.75;135991;1275;22547;-67
2023/05/14 10:41:12;;;;;;;;;;;;;;;27.99;31.44;99152.62;136034;1275;22512;-66
2023/05/14 10:44:15;;;;;;;;;;;;;;;28.04;31.16;99149.34;135944;1275;22520;-68
2023/05/14 10:47:18;;;;;;;;;;;;;;;28.18;31.38;99140.83;135994;1275;22508;-65
2023/05/14 10:50:23;;;;;;;;;;;;;;;28.22;31.08;99137.36;135992;1275;22505;-67
2023/05/14 10:53:26;;;;;;;;;;;;;;;28.33;30.97;99134.58;135996;1275;25217;-67
2023/05/14 10:56:29;;;;;;;;;;;;;;;28.47;31.18;99128.79;136028;1275;22510;-67
2023/05/14 10:59:33;;;;;;;;;;;;;;;28.56;31.25;99122.59;135918;1275;22524;-67
2023/05/14 11:02:37;;;;;;;;;;;;;;;28.66;30.95;99115.58;136016;1275;22572;-67
2023/05/14 11:05:40;;;;;;;;;;;;;;;28.97;30.99;99108.68;136060;1275;22563;-65
2023/05/14 11:08:45;;;;;;;;;;;;;;;29.34;30.75;99109.56;136028;1275;22530;-66
2023/05/14 11:11:48;;;;;;;;;;;;;;;29.36;30.36;99104.77;136012;1275;22506;-66
2023/05/14 11:14:52;;;;;;;;;;;;;;;29.50;30.06;99103.59;136040;1275;25602;-68
2023/05/14 11:17:56;;;;;;;;;;;;;;;29.67;30.23;99092.84;136038;1275;22519;-69
2023/05/14 11:20:59;;;;;;;;;;;;;;;30.01;29.84;99085.13;136026;1275;22503;-67
2023/05/14 11:24:04;;;;;;;;;;;;;;;29.80;29.46;99084.63;136055;1275;22510;-66
2023/05/14 11:27:14;;;;;;;;;;;;;;;29.72;29.56;99081.43;136031;1275;22490;-68
2023/05/14 11:30:17;;;;;;;;;;;;;;;30.04;29.81;99077.48;136042;1275;22494;-69
2023/05/14 11:33:21;;;;;;;;;;;;;;;30.39;29.66;99072.25;136024;1257;22498;-68
2023/05/14 11:36:23;;;;;;;;;;;;;;;30.46;29.06;99076.69;135892;1260;24230;-69
2023/05/14 11:39:27;;;;;;;;;;;;;;;30.45;28.73;99070.87;136016;1275;22496;-70
2023/05/14 11:42:30;;;;;;;;;;;;;;;30.20;28.25;99063.36;135939;1275;22526;-66
2023/05/14 11:45:33;;;;;;;;;;;;;;;29.98;29.00;99065.75;135854;1275;24370;-70
2023/05/14 11:48:36;;;;;;;;;;;;;;;29.84;29.09;99066.92;136017;1275;22522;-71
2023/05/14 11:51:40;;;;;;;;;;;;;;;29.58;28.57;99056.23;136036;1257;22744;-67
2023/05/14 11:54:43;;;;;;;;;;;;;;;28.62;29.05;99064.61;136036;1275;22556;-67
2023/05/14 11:57:47;;;;;;;;;;;;;;;28.15;30.03;99071.67;136051;1275;22540;-66
2023/05/14 12:00:54;;;;;;;;;;;;;;;28.75;30.36;99069.42;135910;1275;22504;-71
2023/05/14 12:03:57;;;;;;;;;;;;;;;29.36;29.75;99061.69;136031;1275;22510;-70
2023/05/14 12:07:00;;;;;;;;;;;;;;;29.88;29.57;99050.50;136069;1275;22548;-68
2023/05/14 12:10:04;;;;;;;;;;;;;;;30.29;29.41;99045.38;136057;1275;22511;-69
2023/05/14 12:13:08;;;;;;;;;;;;;;;30.48;28.51;99040.75;136050;1275;22530;-68
2023/05/14 12:16:11;;;;;;;;;;;;;;;30.45;27.94;99043.27;131914;1275;5373943;-68
2023/05/14 12:19:14;;;;;;;;;;;;;;;30.80;28.08;99047.40;136063;1275;22511;-67
2023/05/14 12:22:18;;;;;;;;;;;;;;;31.21;27.79;99044.16;136046;1275;22503;-70
2023/05/14 12:25:21;;;;;;;;;;;;;;;30.97;26.88;99042.06;136063;1275;22524;-65
2023/05/14 12:28:24;;;;;;;;;;;;;;;30.60;27.29;99038.25;136046;1275;22494;-67
2023/05/14 12:31:27;;;;;;;;;;;;;;;30.59;27.88;99026.79;135989;1275;22527;-68
2023/05/14 12:34:34;;;;;;;;;;;;;;;30.71;26.64;99025.19;135913;1275;22584;-68
2023/05/14 12:37:38;;;;;;;;;;;;;;;30.16;26.55;99022.09;135992;1275;22508;-70
2023/05/14 12:40:42;;;;;;;;;;;;;;;29.41;26.77;99023.73;136067;1275;22515;-67
2023/05/14 12:43:44;;;;;;;;;;;;;;;28.98;27.38;99021.27;136056;1275;22540;-65
2023/05/14 12:46:48;;;;;;;;;;;;;;;28.92;28.00;99020.98;136071;1275;24236;-70
2023/05/14 12:49:51;;;;;;;;;;;;;;;29.07;27.85;99014.17;136045;1275;24330;-67
2023/05/14 12:52:54;;;;;;;;;;;;;;;29.62;27.82;99004.50;136018;1275;22518;-69
2023/05/14 12:55:57;;;;;;;;;;;;;;;29.64;27.00;99005.51;136048;1275;22504;-67
2023/05/14 12:59:03;;;;;;;;;;;;;;;29.28;27.38;98997.86;136036;1256;22602;-70
2023/05/14 13:02:07;;;;;;;;;;;;;;;29.35;27.66;98994.48;135923;1275;22511;-68
2023/05/14 13:05:10;;;;;;;;;;;;;;;29.68;27.80;98983.66;135915;1275;22524;-72
2023/05/14 13:08:16;;;;;;;;;;;;;;;30.01;27.32;98977.34;136035;1275;25351;-67
2023/05/14 13:11:20;;;;;;;;;;;;;;;29.83;26.44;98978.79;135914;1275;22505;-72
2023/05/14 13:14:23;;;;;;;;;;;;;;;29.28;26.83;98978.91;136116;1275;22507;-69
2023/05/14 13:17:26;;;;;;;;;;;;;;;29.26;27.71;98974.17;136084;1275;22520;-66
2023/05/14 13:20:29;;;;;;;;;;;;;;;29.04;27.10;98972.64;135869;1275;22519;-67
2023/05/14 13:23:40;;;;;;;;;;;;;;;28.95;27.26;98964.91;136043;1275;22522;-70
2023/05/14 13:26:43;;;;;;;;;;;;;;;29.25;27.73;98963.30;136052;1275;22514;-66
2023/05/14 13:29:47;;;;;;;;;;;;;;;29.53;27.33;98951.37;136101;1275;22614;-69
2023/05/14 13:32:50;;;;;;;;;;;;;;;29.17;26.76;98952.30;136051;1275;25375;-66
2023/05/14 13:35:53;;;;;;;;;;;;;;;28.85;27.11;98953.84;136020;1275;22818;-68
2023/05/14 13:38:56;;;;;;;;;;;;;;;28.81;27.55;98952.35;136038;1275;25306;-68
2023/05/14 13:42:00;;;;;;;;;;;;;;;28.86;27.41;98949.93;136021;1275;22501;-65
2023/05/14 13:45:03;;;;;;;;;;;;;;;28.81;27.60;98945.46;136024;1275;22526;-68
2023/05/14 13:48:07;;;;;;;;;;;;;;;28.90;27.46;98941.38;136071;1275;22550;-70
2023/05/14 13:51:11;;;;;;;;;;;;;;;29.03;27.54;98941.61;136060;1275;22506;-70
2023/05/14 13:54:15;;;;;;;;;;;;;;;29.12;27.77;98946.70;136086;1275;22760;-70
2023/05/14 13:57:20;;;;;;;;;;;;;;;29.29;27.46;98939.91;136052;1275;24268;-69
2023/05/14 14:00:25;;;;;;;;;;;;;;;29.29;27.14;98929.15;135852;1275;24242;-66
2023/05/14 14:03:29;;;;;;;;;;;;;;;29.18;27.47;98933.13;136066;1275;22510;-67
2023/05/14 14:06:33;;;;;;;;;;;;;;;29.21;27.30;98935.70;136071;1275;22562;-67
2023/05/14 14:09:36;;;;;;;;;;;;;;;29.34;27.40;98933.88;136036;1275;22516;-67
2023/05/14 14:12:39;;;;;;;;;;;;;;;29.23;27.14;98940.59;136057;1275;24267;-69
2023/05/14 14:15:43;;;;;;;;;;;;;;;28.86;27.23;98939.84;136009;1275;25227;-67
2023/05/14 14:18:47;;;;;;;;;;;;;;;28.95;27.41;98935.38;135981;1275;22500;-65
2023/05/14 14:21:50;;;;;;;;;;;;;;;29.46;27.59;98916.83;136095;1275;22511;-67
2023/05/14 14:24:53;;;;;;;;;;;;;;;29.83;26.74;98909.02;135948;1275;22498;-66
2023/05/14 14:27:57;;;;;;;;;;;;;;;29.73;26.82;98912.55;136050;1257;22539;-68
2023/05/14 14:31:00;;;;;;;;;;;;;;;29.06;26.76;98914.72;136100;1275;25319;-66
2023/05/14 14:34:03;;;;;;;;;;;;;;;28.81;27.18;98912.23;136077;1275;22500;-66
2023/05/14 14:37:07;;;;;;;;;;;;;;;29.17;27.47;98904.65;135908;1275;22516;-66
2023/05/14 14:40:10;;;;;;;;;;;;;;;29.53;27.00;98893.08;136056;1275;25268;-67
2023/05/14 14:43:13;;;;;;;;;;;;;;;29.18;26.46;98885.67;136037;1275;22497;-64
2023/05/14 14:46:16;;;;;;;;;;;;;;;28.70;26.97;98885.67;136056;1275;22520;-67
2023/05/14 14:49:19;;;;;;;;;;;;;;;28.77;27.09;98880.36;136083;1275;22490;-67
2023/05/14 14:52:21;;;;;;;;;;;;;;;28.92;27.17;98876.34;136062;1275;22540;-66
2023/05/14 14:55:25;;;;;;;;;;;;;;;29.26;27.37;98868.65;136028;1275;22527;-69
2023/05/14 14:58:29;;;;;;;;;;;;;;;29.62;27.14;98861.17;136122;1275;22511;-66
2023/05/14 15:01:35;;;;;;;;;;;;;;;29.63;26.53;98854.98;136087;1275;22501;-67
2023/05/14 15:04:39;;;;;;;;;;;;;;;29.37;26.60;98853.70;136044;1257;22636;-69
2023/05/14 15:07:42;;;;;;;;;;;;;;;29.12;26.23;98850.12;136051;1275;22504;-68
2023/05/14 15:10:45;;;;;;;;;;;;;;;28.75;26.57;98843.45;136026;1275;22511;-67
2023/05/14 15:13:48;;;;;;;;;;;;;;;28.70;26.86;98844.02;136054;1275;22572;-68
2023/05/14 15:16:51;;;;;;;;;;;;;;;28.38;26.95;98845.77;136107;1275;22510;-67
2023/05/14 15:19:54;;;;;;;;;;;;;;;28.21;27.18;98848.68;135945;1275;22532;-67
2023/05/14 15:22:57;;;;;;;;;;;;;;;28.12;27.43;98845.52;135845;1275;22613;-67
2023/05/14 15:26:01;;;;;;;;;;;;;;;27.95;27.72;98842.89;136041;1275;22539;-68
2023/05/14 15:29:04;;;;;;;;;;;;;;;27.68;27.87;98837.90;136050;1275;24262;-67
2023/05/14 15:32:08;;;;;;;;;;;;;;;27.51;27.96;98836.13;136107;1275;22511;-66
2023/05/14 15:35:11;;;;;;;;;;;;;;;27.28;28.09;98832.05;135926;1275;22583;-67
2023/05/14 15:38:14;;;;;;;;;;;;;;;27.00;28.30;98826.96;136020;1257;24223;-69
2023/05/14 15:41:17;;;;;;;;;;;;;;;26.71;28.64;98822.28;136050;1275;22574;-67
2023/05/14 15:44:20;;;;;;;;;;;;;;;26.50;28.77;98813.79;136058;1275;22527;-68
2023/05/14 15:47:23;;;;;;;;;;;;;;;26.37;28.96;98806.48;136034;1275;22522;-65